sensor_id;sensor_type;location;lat;lon;timestamp;pressure;altitude;pressure_sealevel;temperature;humidity
3844;BME280;1937;51.444;6.484;2023-11-21T00:01:25;74977.13;;;8.29;100.00
3844;BME280;1937;51.444;6.484;2023-11-21T00:03:53;74586.53;;;8.09;100.00
3844;BME280;1937;51.444;6.484;2023-11-21T00:06:23;74378.53;;;7.93;100.00
3844;BME280;1937;51.444;6.484;2023-11-21T00:08:50;74456.19;;;7.93;100.00
3844;BME280;1937;51.444;6.484;2023-11-21T00:11:19;74549.28;;;7.88;100.00
3844;BME280;1937;51.444;6.484;2023-11-21T00:13:47;74750.88;;;7.89;100.00
3844;BME280;1937;51.444;6.484;2023-11-21T00:16:15;75109.88;;;7.98;100.00
3844;BME280;1937;51.444;6.484;2023-11-21T00:18:43;75377.81;;;8.09;100.00
3844;BME280;1937;51.444;6.484;2023-11-21T00:21:12;75447.22;;;8.13;100.00
3844;BME280;1937;51.444;6.484;2023-11-21T00:23:42;75503.75;;;8.11;100.00
3844;BME280;1937;51.444;6.484;2023-11-21T00:26:10;75676.06;;;8.21;100.00
3844;BME280;1937;51.444;6.484;2023-11-21T00:28:38;75707.69;;;8.28;100.00
3844;BME280;1937;51.444;6.484;2023-11-21T00:31:07;75887.81;;;8.36;100.00
3844;BME280;1937;51.444;6.484;2023-11-21T00:33:35;75704.09;;;8.41;100.00
3844;BME280;1937;51.444;6.484;2023-11-21T00:36:02;75596.03;;;8.37;100.00
3844;BME280;1937;51.444;6.484;2023-11-21T00:38:30;75754.97;;;8.48;100.00
3844;BME280;1937;51.444;6.484;2023-11-21T00:40:59;75677.22;;;8.48;100.00
3844;BME280;1937;51.444;6.484;2023-11-21T00:43:28;75794.41;;;8.59;100.00
3844;BME280;1937;51.444;6.484;2023-11-21T00:45:56;75634.91;;;8.57;100.00
3844;BME280;1937;51.444;6.484;2023-11-21T00:48:24;75788.72;;;8.65;100.00
3844;BME280;1937;51.444;6.484;2023-11-21T00:50:51;75648.56;;;8.66;100.00
3844;BME280;1937;51.444;6.484;2023-11-21T00:53:21;75783.69;;;8.71;100.00
3844;BME280;1937;51.444;6.484;2023-11-21T00:55:49;75615.75;;;8.64;100.00
3844;BME280;1937;51.444;6.484;2023-11-21T00:58:24;75593.22;;;8.62;100.00
3844;BME280;1937;51.444;6.484;2023-11-21T01:00:53;75421.22;;;8.35;100.00
3844;BME280;1937;51.444;6.484;2023-11-21T01:03:21;75842.75;;;8.03;100.00
3844;BME280;1937;51.444;6.484;2023-11-21T01:05:49;77068.84;;;8.40;100.00
3844;BME280;1937;51.444;6.484;2023-11-21T01:08:16;77206.75;;;8.63;100.00
3844;BME280;1937;51.444;6.484;2023-11-21T01:10:42;76888.59;;;8.70;100.00
3844;BME280;1937;51.444;6.484;2023-11-21T01:13:10;76820.66;;;8.77;100.00
3844;BME280;1937;51.444;6.484;2023-11-21T01:15:40;76654.25;;;8.83;100.00
3844;BME280;1937;51.444;6.484;2023-11-21T01:18:09;76569.22;;;9.01;100.00
3844;BME280;1937;51.444;6.484;2023-11-21T01:20:38;76131.94;;;9.15;100.00
3844;BME280;1937;51.444;6.484;2023-11-21T01:23:06;75732.94;;;9.15;100.00
3844;BME280;1937;51.444;6.484;2023-11-21T01:25:35;75659.13;;;9.28;100.00
3844;BME280;1937;51.444;6.484;2023-11-21T01:28:03;75410.00;;;9.22;100.00
3844;BME280;1937;51.444;6.484;2023-11-21T01:30:32;75339.88;;;9.24;100.00
3844;BME280;1937;51.444;6.484;2023-11-21T01:33:03;75244.63;;;9.26;100.00
3844;BME280;1937;51.444;6.484;2023-11-21T01:35:31;75269.75;;;9.27;100.00
3844;BME280;1937;51.444;6.484;2023-11-21T01:38:00;75269.13;;;9.29;100.00
3844;BME280;1937;51.444;6.484;2023-11-21T01:40:28;75134.63;;;9.30;100.00
3844;BME280;1937;51.444;6.484;2023-11-21T01:42:57;75265.97;;;9.38;100.00
3844;BME280;1937;51.444;6.484;2023-11-21T01:45:25;75042.63;;;9.41;100.00
3844;BME280;1937;51.444;6.484;2023-11-21T01:47:57;74810.28;;;9.44;99.70
3844;BME280;1937;51.444;6.484;2023-11-21T01:50:27;74308.31;;;9.38;99.24
3844;BME280;1937;51.444;6.484;2023-11-21T01:52:56;74095.53;;;9.23;99.85
3844;BME280;1937;51.444;6.484;2023-11-21T01:55:25;74390.19;;;9.18;100.00
3844;BME280;1937;51.444;6.484;2023-11-21T01:57:53;74670.66;;;9.30;100.00
3844;BME280;1937;51.444;6.484;2023-11-21T02:00:21;74660.38;;;9.24;100.00
3844;BME280;1937;51.444;6.484;2023-11-21T02:02:52;74772.31;;;9.27;100.00
3844;BME280;1937;51.444;6.484;2023-11-21T02:05:20;74870.78;;;9.29;100.00
3844;BME280;1937;51.444;6.484;2023-11-21T02:07:50;74854.03;;;9.49;100.00
3844;BME280;1937;51.444;6.484;2023-11-21T02:10:19;74423.50;;;9.42;100.00
3844;BME280;1937;51.444;6.484;2023-11-21T02:12:49;74425.50;;;9.27;100.00
3844;BME280;1937;51.444;6.484;2023-11-21T02:15:19;74556.75;;;9.29;100.00
3844;BME280;1937;51.444;6.484;2023-11-21T02:17:47;74475.69;;;9.30;100.00
3844;BME280;1937;51.444;6.484;2023-11-21T02:20:18;74488.53;;;9.32;100.00
3844;BME280;1937;51.444;6.484;2023-11-21T02:22:50;74407.50;;;9.25;100.00
3844;BME280;1937;51.444;6.484;2023-11-21T02:25:23;74522.03;;;9.26;100.00
3844;BME280;1937;51.444;6.484;2023-11-21T02:27:52;74650.06;;;9.28;100.00
3844;BME280;1937;51.444;6.484;2023-11-21T02:30:21;74800.00;;;9.36;100.00
3844;BME280;1937;51.444;6.484;2023-11-21T02:32:51;74576.03;;;9.32;100.00
3844;BME280;1937;51.444;6.484;2023-11-21T02:35:20;74596.63;;;9.38;100.00
3844;BME280;1937;51.444;6.484;2023-11-21T02:37:49;74478.19;;;9.40;100.00
3844;BME280;1937;51.444;6.484;2023-11-21T02:40:17;74413.22;;;9.40;100.00
3844;BME280;1937;51.444;6.484;2023-11-21T02:42:47;74238.19;;;9.38;100.00
3844;BME280;1937;51.444;6.484;2023-11-21T02:45:18;74113.97;;;9.39;99.83
3844;BME280;1937;51.444;6.484;2023-11-21T02:47:47;74145.50;;;9.42;100.00
3844;BME280;1937;51.444;6.484;2023-11-21T02:50:15;74179.03;;;9.34;100.00
3844;BME280;1937;51.444;6.484;2023-11-21T02:52:45;74083.81;;;9.34;100.00
3844;BME280;1937;51.444;6.484;2023-11-21T02:55:14;74039.50;;;9.27;100.00
3844;BME280;1937;51.444;6.484;2023-11-21T02:57:42;74304.50;;;9.33;100.00
3844;BME280;1937;51.444;6.484;2023-11-21T03:00:10;74265.94;;;9.27;100.00
3844;BME280;1937;51.444;6.484;2023-11-21T03:02:39;74394.50;;;9.45;100.00
3844;BME280;1937;51.444;6.484;2023-11-21T03:05:09;74145.47;;;9.44;100.00
3844;BME280;1937;51.444;6.484;2023-11-21T03:07:36;74348.16;;;9.48;100.00
3844;BME280;1937;51.444;6.484;2023-11-21T03:10:04;74234.84;;;9.50;100.00
3844;BME280;1937;51.444;6.484;2023-11-21T03:12:33;74086.25;;;9.44;100.00
3844;BME280;1937;51.444;6.484;2023-11-21T03:15:01;74024.56;;;9.38;100.00
3844;BME280;1937;51.444;6.484;2023-11-21T03:17:30;74184.72;;;9.44;100.00
3844;BME280;1937;51.444;6.484;2023-11-21T03:20:00;74188.56;;;9.48;100.00
3844;BME280;1937;51.444;6.484;2023-11-21T03:22:30;73803.88;;;9.38;99.33
3844;BME280;1937;51.444;6.484;2023-11-21T03:24:58;73860.53;;;9.36;99.93
3844;BME280;1937;51.444;6.484;2023-11-21T03:27:26;73943.47;;;9.39;99.82
3844;BME280;1937;51.444;6.484;2023-11-21T03:29:56;73784.66;;;9.33;99.99
3844;BME280;1937;51.444;6.484;2023-11-21T03:32:24;73710.69;;;9.32;100.00
3844;BME280;1937;51.444;6.484;2023-11-21T03:34:55;73852.25;;;9.30;100.00
3844;BME280;1937;51.444;6.484;2023-11-21T03:37:24;73823.34;;;9.27;100.00
3844;BME280;1937;51.444;6.484;2023-11-21T03:39:54;73877.34;;;9.29;100.00
3844;BME280;1937;51.444;6.484;2023-11-21T03:42:22;73844.00;;;9.23;100.00
3844;BME280;1937;51.444;6.484;2023-11-21T03:44:52;74060.03;;;9.31;100.00
3844;BME280;1937;51.444;6.484;2023-11-21T03:47:21;73977.06;;;9.29;100.00
3844;BME280;1937;51.444;6.484;2023-11-21T03:49:50;73978.34;;;9.30;100.00
3844;BME280;1937;51.444;6.484;2023-11-21T03:52:18;73920.06;;;9.12;100.00
3844;BME280;1937;51.444;6.484;2023-11-21T03:54:46;73980.94;;;9.28;100.00
3844;BME280;1937;51.444;6.484;2023-11-21T03:57:14;74011.75;;;9.34;100.00
3844;BME280;1937;51.444;6.484;2023-11-21T03:59:43;73696.88;;;9.13;100.00
3844;BME280;1937;51.444;6.484;2023-11-21T04:02:12;74056.88;;;9.27;100.00
3844;BME280;1937;51.444;6.484;2023-11-21T04:04:41;73924.53;;;9.14;100.00
3844;BME280;1937;51.444;6.484;2023-11-21T04:07:08;74144.47;;;9.19;100.00
3844;BME280;1937;51.444;6.484;2023-11-21T04:09:37;74156.69;;;9.16;100.00
3844;BME280;1937;51.444;6.484;2023-11-21T04:12:06;74145.00;;;9.27;100.00
3844;BME280;1937;51.444;6.484;2023-11-21T04:14:35;74335.41;;;9.31;100.00
3844;BME280;1937;51.444;6.484;2023-11-21T04:17:02;74216.38;;;9.31;100.00
3844;BME280;1937;51.444;6.484;2023-11-21T04:19:31;74134.59;;;9.37;100.00
3844;BME280;1937;51.444;6.484;2023-11-21T04:22:01;74126.81;;;9.43;100.00
3844;BME280;1937;51.444;6.484;2023-11-21T04:24:30;74075.53;;;9.27;100.00
3844;BME280;1937;51.444;6.484;2023-11-21T04:26:59;74507.84;;;9.35;100.00
3844;BME280;1937;51.444;6.484;2023-11-21T04:29:27;74243.38;;;9.34;100.00
3844;BME280;1937;51.444;6.484;2023-11-21T04:31:56;74181.50;;;9.44;100.00
3844;BME280;1937;51.444;6.484;2023-11-21T04:34:25;73857.91;;;9.38;100.00
3844;BME280;1937;51.444;6.484;2023-11-21T04:36:51;73498.06;;;9.18;100.00
3844;BME280;1937;51.444;6.484;2023-11-21T04:39:21;73567.78;;;9.04;100.00
3844;BME280;1937;51.444;6.484;2023-11-21T04:41:50;73886.03;;;9.08;100.00
3844;BME280;1937;51.444;6.484;2023-11-21T04:44:18;74198.44;;;9.23;100.00
3844;BME280;1937;51.444;6.484;2023-11-21T04:46:47;73834.47;;;9.16;100.00
3844;BME280;1937;51.444;6.484;2023-11-21T04:49:15;74016.50;;;9.13;100.00
3844;BME280;1937;51.444;6.484;2023-11-21T04:51:44;74180.66;;;9.00;100.00
3844;BME280;1937;51.444;6.484;2023-11-21T04:54:13;74823.16;;;9.30;100.00
3844;BME280;1937;51.444;6.484;2023-11-21T04:56:41;74698.31;;;9.33;100.00
3844;BME280;1937;51.444;6.484;2023-11-21T04:59:10;74254.94;;;9.35;100.00
3844;BME280;1937;51.444;6.484;2023-11-21T05:01:38;74027.34;;;9.22;100.00
3844;BME280;1937;51.444;6.484;2023-11-21T05:04:05;73699.16;;;8.92;100.00
3844;BME280;1937;51.444;6.484;2023-11-21T05:06:35;74354.41;;;8.79;100.00
3844;BME280;1937;51.444;6.484;2023-11-21T05:09:03;74956.94;;;9.04;100.00
3844;BME280;1937;51.444;6.484;2023-11-21T05:11:31;75082.44;;;9.22;100.00
3844;BME280;1937;51.444;6.484;2023-11-21T05:14:02;74985.94;;;9.27;100.00
3844;BME280;1937;51.444;6.484;2023-11-21T05:16:31;74666.78;;;9.29;100.00
3844;BME280;1937;51.444;6.484;2023-11-21T05:19:00;74447.34;;;9.32;100.00
3844;BME280;1937;51.444;6.484;2023-11-21T05:21:27;74247.94;;;9.27;100.00
3844;BME280;1937;51.444;6.484;2023-11-21T05:23:56;74251.94;;;9.12;100.00
3844;BME280;1937;51.444;6.484;2023-11-21T05:26:24;74733.72;;;9.11;100.00
3844;BME280;1937;51.444;6.484;2023-11-21T05:28:52;74843.09;;;9.32;100.00
3844;BME280;1937;51.444;6.484;2023-11-21T05:31:21;74156.06;;;9.16;100.00
3844;BME280;1937;51.444;6.484;2023-11-21T05:33:50;74123.31;;;9.08;100.00
3844;BME280;1937;51.444;6.484;2023-11-21T05:36:18;74464.81;;;9.14;100.00
3844;BME280;1937;51.444;6.484;2023-11-21T05:38:46;74554.22;;;9.21;100.00
3844;BME280;1937;51.444;6.484;2023-11-21T05:41:13;74554.19;;;9.27;100.00
3844;BME280;1937;51.444;6.484;2023-11-21T05:43:41;74547.09;;;9.34;100.00
3844;BME280;1937;51.444;6.484;2023-11-21T05:46:10;74166.97;;;9.18;100.00
3844;BME280;1937;51.444;6.484;2023-11-21T05:48:40;74424.16;;;9.38;100.00
3844;BME280;1937;51.444;6.484;2023-11-21T05:51:09;74284.50;;;9.40;100.00
3844;BME280;1937;51.444;6.484;2023-11-21T05:53:38;73906.31;;;9.30;100.00
3844;BME280;1937;51.444;6.484;2023-11-21T05:56:07;74015.59;;;9.35;100.00
3844;BME280;1937;51.444;6.484;2023-11-21T05:58:36;73785.91;;;9.34;99.76
3844;BME280;1937;51.444;6.484;2023-11-21T06:01:06;73681.84;;;9.25;100.00
3844;BME280;1937;51.444;6.484;2023-11-21T06:03:35;73831.09;;;9.25;100.00
3844;BME280;1937;51.444;6.484;2023-11-21T06:06:05;73914.59;;;9.34;100.00
3844;BME280;1937;51.444;6.484;2023-11-21T06:08:33;73948.56;;;9.43;100.00
3844;BME280;1937;51.444;6.484;2023-11-21T06:11:01;73743.34;;;9.41;99.93
3844;BME280;1937;51.444;6.484;2023-11-21T06:13:28;73681.41;;;9.50;99.50
3844;BME280;1937;51.444;6.484;2023-11-21T06:15:56;73472.28;;;9.49;99.01
3844;BME280;1937;51.444;6.484;2023-11-21T06:18:28;73342.94;;;9.51;98.91
3844;BME280;1937;51.444;6.484;2023-11-21T06:20:56;72938.22;;;9.09;99.44
3844;BME280;1937;51.444;6.484;2023-11-21T06:23:28;73609.88;;;9.23;100.00
3844;BME280;1937;51.444;6.484;2023-11-21T06:25:56;73826.47;;;9.34;100.00
3844;BME280;1937;51.444;6.484;2023-11-21T06:28:25;73746.03;;;9.33;100.00
3844;BME280;1937;51.444;6.484;2023-11-21T06:30:52;73838.06;;;9.31;100.00
3844;BME280;1937;51.444;6.484;2023-11-21T06:33:20;74077.94;;;9.41;100.00
3844;BME280;1937;51.444;6.484;2023-11-21T06:35:49;74125.50;;;9.47;100.00
3844;BME280;1937;51.444;6.484;2023-11-21T06:38:18;74211.59;;;9.58;100.00
3844;BME280;1937;51.444;6.484;2023-11-21T06:40:47;74056.34;;;9.67;99.88
3844;BME280;1937;51.444;6.484;2023-11-21T06:43:15;73610.97;;;9.65;99.12
3844;BME280;1937;51.444;6.484;2023-11-21T06:45:44;73276.59;;;9.53;98.82
3844;BME280;1937;51.444;6.484;2023-11-21T06:48:12;73236.09;;;9.52;99.43
3844;BME280;1937;51.444;6.484;2023-11-21T06:50:40;73337.06;;;9.54;99.38
3844;BME280;1937;51.444;6.484;2023-11-21T06:53:08;73237.53;;;9.47;98.92
3844;BME280;1937;51.444;6.484;2023-11-21T06:55:36;73244.09;;;9.41;99.58
3844;BME280;1937;51.444;6.484;2023-11-21T06:58:06;73477.50;;;9.47;99.99
3844;BME280;1937;51.444;6.484;2023-11-21T07:00:33;73323.75;;;9.45;99.44
3844;BME280;1937;51.444;6.484;2023-11-21T07:03:01;73346.31;;;9.43;99.62
3844;BME280;1937;51.444;6.484;2023-11-21T07:05:30;73527.00;;;9.19;100.00
3844;BME280;1937;51.444;6.484;2023-11-21T07:08:00;73728.53;;;9.42;100.00
3844;BME280;1937;51.444;6.484;2023-11-21T07:10:30;73610.72;;;9.44;100.00
3844;BME280;1937;51.444;6.484;2023-11-21T07:12:58;73701.47;;;9.43;100.00
3844;BME280;1937;51.444;6.484;2023-11-21T07:15:28;73975.34;;;9.60;100.00
3844;BME280;1937;51.444;6.484;2023-11-21T07:17:55;73921.88;;;9.65;100.00
3844;BME280;1937;51.444;6.484;2023-11-21T07:20:24;73667.34;;;9.44;100.00
3844;BME280;1937;51.444;6.484;2023-11-21T07:22:53;73861.50;;;9.56;100.00
3844;BME280;1937;51.444;6.484;2023-11-21T07:25:22;73765.41;;;9.67;99.93
3844;BME280;1937;51.444;6.484;2023-11-21T07:27:49;73357.31;;;9.41;100.00
3844;BME280;1937;51.444;6.484;2023-11-21T07:30:17;73889.13;;;9.59;100.00
3844;BME280;1937;51.444;6.484;2023-11-21T07:32:46;73760.81;;;9.72;99.84
3844;BME280;1937;51.444;6.484;2023-11-21T07:35:15;73654.03;;;9.67;99.96
3844;BME280;1937;51.444;6.484;2023-11-21T07:37:44;73415.88;;;9.68;99.35
3844;BME280;1937;51.444;6.484;2023-11-21T07:40:14;73544.38;;;9.78;99.29
3844;BME280;1937;51.444;6.484;2023-11-21T07:42:43;73423.31;;;9.80;99.43
3844;BME280;1937;51.444;6.484;2023-11-21T07:45:10;73336.88;;;9.87;98.70
3844;BME280;1937;51.444;6.484;2023-11-21T07:47:41;73219.09;;;9.85;99.35
3844;BME280;1937;51.444;6.484;2023-11-21T07:50:11;73261.38;;;9.70;99.66
3844;BME280;1937;51.444;6.484;2023-11-21T07:52:39;73418.53;;;9.66;100.00
3844;BME280;1937;51.444;6.484;2023-11-21T07:55:07;73820.44;;;9.86;100.00
3844;BME280;1937;51.444;6.484;2023-11-21T07:57:36;73481.63;;;9.92;99.15
3844;BME280;1937;51.444;6.484;2023-11-21T08:00:06;73374.19;;;9.88;99.31
3844;BME280;1937;51.444;6.484;2023-11-21T08:02:34;73574.91;;;9.96;99.60
3844;BME280;1937;51.444;6.484;2023-11-21T08:05:01;73179.50;;;9.74;99.28
3844;BME280;1937;51.444;6.484;2023-11-21T08:07:34;73191.22;;;9.69;99.24
3844;BME280;1937;51.444;6.484;2023-11-21T08:10:01;73103.41;;;9.79;98.26
3844;BME280;1937;51.444;6.484;2023-11-21T08:12:31;72758.28;;;9.65;98.70
3844;BME280;1937;51.444;6.484;2023-11-21T08:15:00;72897.63;;;9.73;98.69
3844;BME280;1937;51.444;6.484;2023-11-21T08:17:30;73045.84;;;9.66;99.22
3844;BME280;1937;51.444;6.484;2023-11-21T08:19:58;73371.09;;;9.83;99.99
3844;BME280;1937;51.444;6.484;2023-11-21T08:22:25;73432.44;;;10.02;99.18
3844;BME280;1937;51.444;6.484;2023-11-21T08:24:54;73024.97;;;9.97;98.08
3844;BME280;1937;51.444;6.484;2023-11-21T08:27:22;73153.28;;;10.13;98.54
3844;BME280;1937;51.444;6.484;2023-11-21T08:29:50;72509.47;;;9.76;98.48
3844;BME280;1937;51.444;6.484;2023-11-21T08:32:21;73001.06;;;10.01;98.49
3844;BME280;1937;51.444;6.484;2023-11-21T08:34:49;72872.69;;;9.89;99.14
3844;BME280;1937;51.444;6.484;2023-11-21T08:37:18;73087.00;;;10.12;98.24
3844;BME280;1937;51.444;6.484;2023-11-21T08:39:47;72745.31;;;10.04;97.52
3844;BME280;1937;51.444;6.484;2023-11-21T08:42:16;72755.84;;;10.17;97.73
3844;BME280;1937;51.444;6.484;2023-11-21T08:44:43;72412.53;;;10.18;96.73
3844;BME280;1937;51.444;6.484;2023-11-21T08:47:12;72553.19;;;10.28;97.14
3844;BME280;1937;51.444;6.484;2023-11-21T08:49:40;72437.38;;;10.41;96.37
3844;BME280;1937;51.444;6.484;2023-11-21T08:52:09;72241.72;;;10.37;96.08
3844;BME280;1937;51.444;6.484;2023-11-21T08:54:38;72201.84;;;10.36;95.80
3844;BME280;1937;51.444;6.484;2023-11-21T08:57:07;71996.09;;;10.27;96.01
3844;BME280;1937;51.444;6.484;2023-11-21T08:59:36;71887.28;;;10.27;95.45
3844;BME280;1937;51.444;6.484;2023-11-21T09:02:05;71871.63;;;10.31;96.06
3844;BME280;1937;51.444;6.484;2023-11-21T09:04:34;71937.81;;;10.35;95.62
3844;BME280;1937;51.444;6.484;2023-11-21T09:07:03;71828.47;;;10.44;95.36
3844;BME280;1937;51.444;6.484;2023-11-21T09:09:31;71888.97;;;10.58;95.51
3844;BME280;1937;51.444;6.484;2023-11-21T09:11:59;71681.78;;;10.53;95.37
3844;BME280;1937;51.444;6.484;2023-11-21T09:14:27;71646.97;;;10.77;94.21
3844;BME280;1937;51.444;6.484;2023-11-21T09:16:57;71563.63;;;10.81;94.59
3844;BME280;1937;51.444;6.484;2023-11-21T09:19:25;71620.94;;;11.04;93.99
3844;BME280;1937;51.444;6.484;2023-11-21T09:21:52;71374.09;;;11.14;93.08
3844;BME280;1937;51.444;6.484;2023-11-21T09:24:19;71005.94;;;11.14;92.42
3844;BME280;1937;51.444;6.484;2023-11-21T09:26:46;70984.41;;;11.37;91.70
3844;BME280;1937;51.444;6.484;2023-11-21T09:29:13;70678.13;;;11.09;91.90
3844;BME280;1937;51.444;6.484;2023-11-21T09:31:41;70548.75;;;11.07;91.65
3844;BME280;1937;51.444;6.484;2023-11-21T09:34:12;70651.47;;;11.22;91.57
3844;BME280;1937;51.444;6.484;2023-11-21T09:36:45;70580.78;;;11.36;91.59
3844;BME280;1937;51.444;6.484;2023-11-21T09:39:14;70551.03;;;11.45;90.99
3844;BME280;1937;51.444;6.484;2023-11-21T09:41:49;70276.75;;;11.32;90.25
3844;BME280;1937;51.444;6.484;2023-11-21T09:44:20;70208.94;;;11.33;90.49
3844;BME280;1937;51.444;6.484;2023-11-21T09:46:52;70200.22;;;11.45;89.96
3844;BME280;1937;51.444;6.484;2023-11-21T09:49:24;70172.59;;;11.44;90.49
3844;BME280;1937;51.444;6.484;2023-11-21T09:51:55;70112.47;;;11.54;89.91
3844;BME280;1937;51.444;6.484;2023-11-21T09:54:23;70048.59;;;11.70;89.13
3844;BME280;1937;51.444;6.484;2023-11-21T09:56:52;70122.84;;;11.84;89.32
3844;BME280;1937;51.444;6.484;2023-11-21T09:59:24;69879.59;;;11.77;88.77
3844;BME280;1937;51.444;6.484;2023-11-21T10:01:52;69818.78;;;11.72;88.46
3844;BME280;1937;51.444;6.484;2023-11-21T10:04:22;69835.03;;;11.70;88.46
3844;BME280;1937;51.444;6.484;2023-11-21T10:06:50;69795.03;;;11.78;88.30
3844;BME280;1937;51.444;6.484;2023-11-21T10:09:21;69913.94;;;12.13;88.96
3844;BME280;1937;51.444;6.484;2023-11-21T10:11:51;69768.25;;;12.25;88.23
3844;BME280;1937;51.444;6.484;2023-11-21T10:14:21;69801.38;;;12.44;87.11
3844;BME280;1937;51.444;6.484;2023-11-21T10:16:52;69782.41;;;12.54;86.90
3844;BME280;1937;51.444;6.484;2023-11-21T10:19:22;69409.59;;;11.88;87.03
3844;BME280;1937;51.444;6.484;2023-11-21T10:21:50;69565.47;;;11.98;87.87
3844;BME280;1937;51.444;6.484;2023-11-21T10:24:18;69563.53;;;12.05;87.50
3844;BME280;1937;51.444;6.484;2023-11-21T10:26:46;69483.09;;;12.02;85.83
3844;BME280;1937;51.444;6.484;2023-11-21T10:29:17;69657.09;;;12.40;86.52
3844;BME280;1937;51.444;6.484;2023-11-21T10:31:49;69473.28;;;12.24;85.41
3844;BME280;1937;51.444;6.484;2023-11-21T10:34:18;69593.19;;;12.54;86.22
3844;BME280;1937;51.444;6.484;2023-11-21T10:36:47;69669.34;;;13.03;84.74
3844;BME280;1937;51.444;6.484;2023-11-21T10:39:17;69299.84;;;12.61;84.00
3844;BME280;1937;51.444;6.484;2023-11-21T10:41:44;69263.69;;;12.68;84.16
3844;BME280;1937;51.444;6.484;2023-11-21T10:44:14;69259.53;;;12.71;84.21
3844;BME280;1937;51.444;6.484;2023-11-21T10:46:47;69376.19;;;12.87;83.91
3844;BME280;1937;51.444;6.484;2023-11-21T10:49:16;69271.78;;;13.03;83.17
3844;BME280;1937;51.444;6.484;2023-11-21T10:51:45;69162.03;;;12.96;82.82
3844;BME280;1937;51.444;6.484;2023-11-21T10:54:19;69106.81;;;12.80;83.01
3844;BME280;1937;51.444;6.484;2023-11-21T10:56:49;69106.41;;;12.84;83.40
3844;BME280;1937;51.444;6.484;2023-11-21T10:59:18;69110.59;;;12.81;83.49
3844;BME280;1937;51.444;6.484;2023-11-21T11:01:51;69109.84;;;12.69;83.37
3844;BME280;1937;51.444;6.484;2023-11-21T11:04:20;69203.59;;;13.00;83.38
3844;BME280;1937;51.444;6.484;2023-11-21T11:06:54;69140.53;;;13.04;83.68
3844;BME280;1937;51.444;6.484;2023-11-21T11:09:24;69122.91;;;12.87;83.62
3844;BME280;1937;51.444;6.484;2023-11-21T11:11:52;69094.91;;;12.76;83.22
3844;BME280;1937;51.444;6.484;2023-11-21T11:14:22;69150.13;;;12.86;84.04
3844;BME280;1937;51.444;6.484;2023-11-21T11:16:53;69070.69;;;12.66;83.48
3844;BME280;1937;51.444;6.484;2023-11-21T11:19:22;69118.38;;;12.67;83.79
3844;BME280;1937;51.444;6.484;2023-11-21T11:22:03;69083.47;;;12.55;83.97
3844;BME280;1937;51.444;6.484;2023-11-21T11:24:53;69067.22;;;12.44;84.34
3844;BME280;1937;51.444;6.484;2023-11-21T11:27:32;69043.38;;;11.79;87.17
3844;BME280;1937;51.444;6.484;2023-11-21T11:30:13;69273.03;;;12.06;87.78
3844;BME280;1937;51.444;6.484;2023-11-21T11:32:51;69385.50;;;12.31;87.13
3844;BME280;1937;51.444;6.484;2023-11-21T11:35:29;69420.28;;;12.45;86.61
3844;BME280;1937;51.444;6.484;2023-11-21T11:38:02;69309.22;;;12.52;85.31
3844;BME280;1937;51.444;6.484;2023-11-21T11:40:40;69176.53;;;12.16;86.39
3844;BME280;1937;51.444;6.484;2023-11-21T11:43:09;69248.63;;;12.05;87.44
3844;BME280;1937;51.444;6.484;2023-11-21T11:45:38;69334.13;;;11.81;88.94
3844;BME280;1937;51.444;6.484;2023-11-21T11:48:11;69422.28;;;11.83;88.83
3844;BME280;1937;51.444;6.484;2023-11-21T11:53:25;69490.66;;;12.04;88.82
3844;BME280;1937;51.444;6.484;2023-11-21T11:56:23;69532.66;;;12.24;88.36
3844;BME280;1937;51.444;6.484;2023-11-21T11:58:53;69509.91;;;11.99;89.16
3844;BME280;1937;51.444;6.484;2023-11-21T12:01:20;69469.41;;;12.04;88.43
3844;BME280;1937;51.444;6.484;2023-11-21T12:06:52;69696.56;;;12.04;89.59
3844;BME280;1937;51.444;6.484;2023-11-21T12:09:22;69702.53;;;12.30;88.14
3844;BME280;1937;51.444;6.484;2023-11-21T12:11:56;69533.97;;;12.10;88.42
3844;BME280;1937;51.444;6.484;2023-11-21T12:14:24;69599.81;;;12.24;87.59
3844;BME280;1937;51.444;6.484;2023-11-21T12:16:52;69595.03;;;12.27;87.96
3844;BME280;1937;51.444;6.484;2023-11-21T12:19:21;69620.69;;;12.29;87.57
3844;BME280;1937;51.444;6.484;2023-11-21T12:21:50;69476.59;;;12.10;88.73
3844;BME280;1937;51.444;6.484;2023-11-21T12:24:18;69543.94;;;12.21;87.96
3844;BME280;1937;51.444;6.484;2023-11-21T12:26:47;69532.44;;;12.20;88.47
3844;BME280;1937;51.444;6.484;2023-11-21T12:29:17;69475.91;;;11.96;88.58
3844;BME280;1937;51.444;6.484;2023-11-21T12:31:46;69553.78;;;11.99;89.17
3844;BME280;1937;51.444;6.484;2023-11-21T12:34:16;69583.72;;;11.89;88.88
3844;BME280;1937;51.444;6.484;2023-11-21T12:36:44;69760.69;;;12.23;89.35
3844;BME280;1937;51.444;6.484;2023-11-21T12:39:13;69730.97;;;12.37;88.48
3844;BME280;1937;51.444;6.484;2023-11-21T12:41:41;69598.97;;;12.61;87.01
3844;BME280;1937;51.444;6.484;2023-11-21T12:44:12;69686.53;;;12.78;87.40
3844;BME280;1937;51.444;6.484;2023-11-21T12:46:43;69704.72;;;12.98;86.44
3844;BME280;1937;51.444;6.484;2023-11-21T12:49:12;69561.16;;;12.99;85.82
3844;BME280;1937;51.444;6.484;2023-11-21T12:51:44;69406.59;;;12.73;85.47
3844;BME280;1937;51.444;6.484;2023-11-21T12:54:12;69247.44;;;12.30;86.99
3844;BME280;1937;51.444;6.484;2023-11-21T12:56:41;69364.53;;;11.87;89.75
3844;BME280;1937;51.444;6.484;2023-11-21T12:59:13;69519.59;;;11.92;89.80
3844;BME280;1937;51.444;6.484;2023-11-21T13:01:45;69568.66;;;11.70;90.52
3844;BME280;1937;51.444;6.484;2023-11-21T13:04:16;69714.97;;;11.71;90.41
3844;BME280;1937;51.444;6.484;2023-11-21T13:06:44;69723.19;;;11.80;89.68
3844;BME280;1937;51.444;6.484;2023-11-21T13:09:12;69775.09;;;11.92;90.02
3844;BME280;1937;51.444;6.484;2023-11-21T13:11:47;69861.34;;;12.16;90.35
3844;BME280;1937;51.444;6.484;2023-11-21T13:14:15;69743.72;;;11.89;90.75
3844;BME280;1937;51.444;6.484;2023-11-21T13:16:41;69869.75;;;11.86;91.06
3844;BME280;1937;51.444;6.484;2023-11-21T13:19:13;69933.59;;;11.64;91.68
3844;BME280;1937;51.444;6.484;2023-11-21T13:21:42;70071.03;;;11.71;92.26
3844;BME280;1937;51.444;6.484;2023-11-21T13:24:10;70042.97;;;11.52;92.79
3844;BME280;1937;51.444;6.484;2023-11-21T13:26:38;70110.28;;;11.18;94.05
3844;BME280;1937;51.444;6.484;2023-11-21T13:29:06;70272.59;;;11.02;95.38
3844;BME280;1937;51.444;6.484;2023-11-21T13:31:32;70599.34;;;10.76;97.67
3844;BME280;1937;51.444;6.484;2023-11-21T13:34:03;71331.75;;;10.79;99.23
3844;BME280;1937;51.444;6.484;2023-11-21T13:36:35;71691.84;;;10.70;99.57
3844;BME280;1937;51.444;6.484;2023-11-21T13:39:03;72394.22;;;10.85;99.59